createdAt,value
2023-04-21T00:00:04.204Z,7.10
2023-04-21T00:02:31.423Z,7.00
2023-04-21T00:05:00.392Z,7.00
2023-04-21T00:07:27.293Z,7.00
2023-04-21T00:09:54.121Z,7.00
2023-04-21T00:12:21.637Z,7.00
2023-04-21T00:14:48.461Z,7.00
2023-04-21T00:17:15.229Z,7.00
2023-04-21T00:19:42.261Z,7.00
2023-04-21T00:22:14.757Z,7.00
2023-04-21T00:24:41.536Z,7.00
2023-04-21T00:27:08.341Z,7.00
2023-04-21T00:29:35.114Z,7.00
2023-04-21T00:32:03.779Z,7.00
2023-04-21T00:34:30.622Z,6.90
2023-04-21T00:36:57.421Z,6.90
2023-04-21T00:39:24.363Z,7.00
2023-04-21T00:41:51.347Z,7.00
2023-04-21T00:44:18.190Z,7.00
2023-04-21T00:46:44.998Z,7.00
2023-04-21T00:49:13.350Z,7.00
2023-04-21T00:51:40.732Z,7.00
2023-04-21T00:54:08.173Z,7.00
2023-04-21T00:56:36.560Z,7.00
2023-04-21T00:59:04.080Z,7.00
2023-04-21T01:01:32.634Z,6.90
2023-04-21T01:04:00.917Z,6.90
2023-04-21T01:06:29.232Z,6.90
2023-04-21T01:08:56.097Z,6.90
2023-04-21T01:11:22.922Z,6.90
2023-04-21T01:13:53.392Z,6.90
2023-04-21T01:16:21.286Z,6.90
2023-04-21T01:18:48.121Z,6.90
2023-04-21T01:21:16.120Z,6.90
2023-04-21T01:23:43.485Z,6.80
2023-04-21T01:26:10.423Z,6.80
2023-04-21T01:28:37.867Z,6.80
2023-04-21T01:31:05.368Z,6.80
2023-04-21T01:33:32.240Z,6.80
2023-04-21T01:36:01.082Z,6.80
2023-04-21T01:38:28.160Z,6.80
2023-04-21T01:40:55.329Z,6.80
2023-04-21T01:43:24.774Z,6.70
2023-04-21T01:45:52.595Z,6.70
2023-04-21T01:48:19.464Z,6.70
2023-04-21T01:50:46.425Z,6.70
2023-04-21T01:53:13.339Z,6.70
2023-04-21T01:55:40.226Z,6.70
2023-04-21T01:58:07.038Z,6.70
2023-04-21T02:00:33.851Z,6.70
2023-04-21T02:03:00.811Z,6.70
2023-04-21T02:05:27.793Z,6.70
2023-04-21T02:07:55.065Z,6.70
2023-04-21T02:10:21.952Z,6.70
2023-04-21T02:12:48.777Z,6.70
2023-04-21T02:15:15.575Z,6.60
2023-04-21T02:17:44.826Z,6.60
2023-04-21T02:20:15.122Z,6.60
2023-04-21T02:22:42.047Z,6.60
2023-04-21T02:25:09.042Z,6.60
2023-04-21T02:27:35.912Z,6.50
2023-04-21T02:30:02.823Z,6.50
2023-04-21T02:32:29.853Z,6.50
2023-04-21T02:34:56.821Z,6.50
2023-04-21T02:37:24.145Z,6.50
2023-04-21T02:39:51.094Z,6.40
2023-04-21T02:42:17.961Z,6.40
2023-04-21T02:44:44.760Z,6.40
2023-04-21T02:47:11.587Z,6.40
2023-04-21T02:49:42.609Z,6.40
2023-04-21T02:52:10.032Z,6.40
2023-04-21T02:54:36.820Z,6.40
2023-04-21T02:57:03.678Z,6.40
2023-04-21T02:59:30.696Z,6.40
2023-04-21T03:01:57.569Z,6.50
2023-04-21T03:04:25.560Z,6.60
2023-04-21T03:06:53.509Z,6.60
2023-04-21T03:09:20.857Z,6.60
2023-04-21T03:11:47.813Z,6.60
2023-04-21T03:14:14.604Z,6.50
2023-04-21T03:16:41.497Z,6.50
2023-04-21T03:19:08.437Z,6.50
2023-04-21T03:21:37.986Z,6.50
2023-04-21T03:24:06.559Z,6.50
2023-04-21T03:26:33.675Z,6.50
2023-04-21T03:29:00.539Z,6.60
2023-04-21T03:31:27.441Z,6.50
2023-04-21T03:33:54.351Z,6.50
2023-04-21T03:36:21.184Z,6.40
2023-04-21T03:38:47.942Z,6.50
2023-04-21T03:41:14.752Z,6.50
2023-04-21T03:43:41.547Z,6.50
2023-04-21T03:46:08.469Z,6.40
2023-04-21T03:48:35.293Z,6.40
2023-04-21T03:51:02.082Z,6.40
2023-04-21T03:53:28.864Z,6.40
2023-04-21T03:55:55.737Z,6.40
2023-04-21T03:58:22.548Z,6.40
2023-04-21T04:00:49.350Z,6.40
2023-04-21T04:03:16.291Z,6.40
2023-04-21T04:05:43.317Z,6.40
2023-04-21T04:08:10.297Z,6.40
2023-04-21T04:10:37.240Z,6.40
2023-04-21T04:13:04.067Z,6.40
2023-04-21T04:15:30.905Z,6.40
2023-04-21T04:17:57.768Z,6.40
2023-04-21T04:20:24.735Z,6.40
2023-04-21T04:22:51.617Z,6.40
2023-04-21T04:25:18.839Z,6.40
2023-04-21T04:27:45.878Z,6.50
2023-04-21T04:30:13.227Z,6.50
2023-04-21T04:32:40.159Z,6.50
2023-04-21T04:35:08.215Z,6.50
2023-04-21T04:37:38.176Z,6.60
2023-04-21T04:40:06.414Z,6.70
2023-04-21T04:42:33.259Z,6.70
2023-04-21T04:45:01.835Z,6.70
2023-04-21T04:47:31.882Z,6.70
2023-04-21T04:49:58.779Z,6.70
2023-04-21T04:52:26.287Z,6.80
2023-04-21T04:54:53.158Z,6.80
2023-04-21T04:57:19.939Z,6.80
2023-04-21T04:59:46.861Z,6.90
2023-04-21T05:02:16.481Z,6.90
2023-04-21T05:04:43.568Z,7.00
2023-04-21T05:07:10.427Z,7.00
2023-04-21T05:09:37.339Z,7.10
2023-04-21T05:12:04.388Z,7.10
2023-04-21T05:14:31.292Z,7.20
2023-04-21T05:16:58.333Z,7.20
2023-04-21T05:19:26.013Z,7.30
2023-04-21T05:21:53.193Z,7.30
2023-04-21T05:24:24.266Z,7.40
2023-04-21T05:26:51.124Z,7.50
2023-04-21T05:29:17.977Z,7.50
2023-04-21T05:31:44.882Z,7.50
2023-04-21T05:34:11.758Z,7.60
2023-04-21T05:36:42.397Z,7.70
2023-04-21T05:39:09.627Z,7.70
2023-04-21T05:41:36.588Z,7.70
2023-04-21T05:44:03.452Z,7.80
2023-04-21T05:46:30.388Z,7.80
2023-04-21T05:48:57.252Z,7.90
2023-04-21T05:51:24.125Z,7.90
2023-04-21T05:53:51.504Z,8.00
2023-04-21T05:56:18.802Z,8.00
2023-04-21T05:58:45.874Z,8.10
2023-04-21T06:01:13.090Z,8.10
2023-04-21T06:03:40.106Z,8.20
2023-04-21T06:06:07.253Z,8.20
2023-04-21T06:08:34.109Z,8.30
2023-04-21T06:11:00.899Z,8.40
2023-04-21T06:13:32.295Z,8.40
2023-04-21T06:15:59.307Z,8.50
2023-04-21T06:18:29.374Z,8.60
2023-04-21T06:20:56.652Z,8.60
2023-04-21T06:23:23.566Z,8.70
2023-04-21T06:26:01.396Z,8.80
2023-04-21T06:28:28.358Z,8.80
2023-04-21T06:30:55.292Z,8.90
2023-04-21T06:33:22.152Z,9.00
2023-04-21T06:35:48.998Z,9.00
2023-04-21T06:38:16.090Z,9.10
2023-04-21T06:40:42.903Z,9.20
2023-04-21T06:43:09.721Z,9.30
2023-04-21T06:45:36.653Z,9.30
2023-04-21T06:48:03.651Z,9.40
2023-04-21T06:50:30.569Z,9.50
2023-04-21T06:52:57.438Z,9.50
2023-04-21T06:55:24.325Z,9.60
2023-04-21T06:57:51.155Z,9.80
2023-04-21T07:00:18.236Z,9.80
2023-04-21T07:02:45.205Z,9.90
2023-04-21T07:05:12.052Z,10.00
2023-04-21T07:07:38.855Z,10.00
2023-04-21T07:10:06.252Z,10.10
2023-04-21T07:12:33.181Z,10.20
2023-04-21T07:14:59.989Z,10.30
2023-04-21T07:17:26.894Z,10.40
2023-04-21T07:19:53.690Z,10.50
2023-04-21T07:22:20.522Z,10.60
2023-04-21T07:24:49.233Z,10.70
2023-04-21T07:27:19.021Z,10.70
2023-04-21T07:29:46.067Z,10.70
2023-04-21T07:32:12.947Z,10.80
2023-04-21T07:34:40.245Z,10.90
2023-04-21T07:37:07.141Z,11.00
2023-04-21T07:39:33.985Z,11.10
2023-04-21T07:42:00.822Z,11.30
2023-04-21T07:44:29.433Z,11.30
2023-04-21T07:46:56.506Z,11.40
2023-04-21T07:49:23.531Z,11.50
2023-04-21T07:51:50.572Z,11.60
2023-04-21T07:54:17.422Z,11.70
2023-04-21T07:56:44.244Z,11.70
2023-04-21T07:59:11.113Z,11.80
2023-04-21T08:01:37.918Z,11.90
2023-04-21T08:04:04.836Z,12.00
2023-04-21T08:06:33.620Z,12.00
2023-04-21T08:09:00.624Z,12.10
2023-04-21T08:11:28.636Z,12.20
2023-04-21T08:13:55.457Z,12.20
2023-04-21T08:16:22.367Z,12.30
2023-04-21T08:18:49.514Z,12.30
2023-04-21T08:21:16.720Z,12.50
2023-04-21T08:23:43.563Z,12.70
2023-04-21T08:26:10.925Z,12.80
2023-04-21T08:28:37.833Z,12.80
2023-04-21T08:31:05.290Z,12.90
2023-04-21T08:33:32.139Z,13.00
2023-04-21T08:36:05.452Z,13.20
2023-04-21T08:38:35.498Z,13.20
2023-04-21T08:41:03.505Z,13.20
2023-04-21T08:43:30.390Z,13.20
2023-04-21T08:45:57.794Z,13.30
2023-04-21T08:48:26.235Z,13.40
2023-04-21T08:50:53.885Z,13.50
2023-04-21T08:53:21.651Z,13.60
2023-04-21T08:56:07.653Z,13.80
2023-04-21T08:58:37.403Z,13.90
2023-04-21T09:01:04.428Z,13.90
2023-04-21T09:03:31.497Z,14.10
2023-04-21T09:06:06.690Z,14.10
2023-04-21T09:08:36.923Z,14.20
2023-04-21T09:11:03.939Z,14.20
2023-04-21T09:13:35.833Z,14.30
2023-04-21T09:16:08.473Z,14.30
2023-04-21T09:18:37.535Z,14.40
2023-04-21T09:21:12.950Z,14.50
2023-04-21T09:23:50.155Z,14.50
2023-04-21T09:26:19.083Z,14.60
2023-04-21T09:28:48.039Z,14.70
2023-04-21T09:31:20.251Z,14.80
2023-04-21T09:36:26.276Z,15.20
2023-04-21T09:41:33.497Z,15.30
2023-04-21T09:44:01.638Z,15.30
2023-04-21T09:46:30.321Z,15.30
2023-04-21T09:49:00.217Z,15.30
2023-04-21T09:51:42.870Z,15.50
2023-04-21T09:54:28.913Z,15.70
2023-04-21T09:56:59.760Z,15.90
2023-04-21T09:59:29.824Z,15.90
2023-04-21T10:01:57.866Z,16.00
2023-04-21T10:04:26.463Z,16.30
2023-04-21T10:06:53.670Z,16.40
2023-04-21T10:09:22.859Z,16.40
2023-04-21T10:11:49.723Z,16.20
2023-04-21T10:14:16.580Z,16.00
2023-04-21T10:16:43.637Z,16.00
2023-04-21T10:19:27.002Z,16.10
2023-04-21T10:21:59.928Z,16.10
2023-04-21T10:24:30.579Z,16.10
2023-04-21T10:27:01.704Z,16.30
2023-04-21T10:29:40.223Z,16.50
2023-04-21T10:32:11.280Z,16.50
2023-04-21T10:34:38.815Z,16.50
2023-04-21T10:37:05.730Z,16.50
2023-04-21T10:39:43.204Z,16.60
2023-04-21T10:42:13.276Z,16.70
2023-04-21T10:44:44.897Z,16.70
2023-04-21T10:47:11.780Z,16.70
2023-04-21T10:49:39.932Z,16.70
2023-04-21T10:52:12.195Z,17.00
2023-04-21T10:54:46.441Z,17.10
2023-04-21T10:57:18.794Z,17.20
2023-04-21T10:59:46.758Z,17.30
2023-04-21T11:02:18.678Z,17.40
2023-04-21T11:04:50.915Z,17.30
2023-04-21T11:07:23.169Z,17.20
2023-04-21T11:10:00.464Z,17.30
2023-04-21T11:12:30.014Z,17.20
2023-04-21T11:14:57.427Z,17.20
2023-04-21T11:17:26.071Z,17.20
2023-04-21T13:27:34.266Z,18.60
2023-04-21T13:30:01.153Z,18.70
2023-04-21T13:32:28.026Z,18.80
2023-04-21T13:34:54.891Z,18.70
2023-04-21T13:37:21.762Z,19.00
2023-04-21T13:39:48.883Z,18.80
2023-04-21T13:42:15.859Z,18.70
2023-04-21T13:44:42.787Z,18.60
2023-04-21T13:47:09.912Z,18.50
2023-04-21T13:49:36.887Z,18.40
2023-04-21T13:52:03.830Z,18.30
2023-04-21T13:54:31.365Z,18.30
2023-04-21T13:56:58.549Z,18.20
2023-04-21T13:59:25.593Z,18.10
2023-04-21T14:01:52.410Z,18.10
2023-04-21T14:04:21.144Z,18.10
2023-04-21T14:06:50.002Z,18.20
2023-04-21T14:09:16.836Z,18.20
2023-04-21T14:11:43.688Z,18.30
2023-04-21T14:14:10.643Z,18.10
2023-04-21T14:16:38.040Z,18.00
2023-04-21T14:19:04.915Z,17.90
2023-04-21T14:21:32.690Z,17.90
2023-04-21T14:23:59.632Z,18.00
2023-04-21T14:26:26.456Z,18.00
2023-04-21T14:28:56.408Z,18.10
2023-04-21T14:31:23.352Z,18.10
2023-04-21T14:33:50.288Z,18.10
2023-04-21T14:36:17.242Z,18.20
2023-04-21T14:38:46.735Z,18.30
2023-04-21T14:41:13.620Z,18.30
2023-04-21T14:43:40.551Z,18.30
2023-04-21T14:46:07.557Z,18.30
2023-04-21T14:48:34.437Z,18.30
2023-04-21T14:51:01.367Z,18.30
2023-04-21T14:53:28.169Z,18.20
2023-04-21T14:55:55.058Z,18.10
2023-04-21T14:58:21.999Z,18.00
2023-04-21T15:00:48.930Z,18.00
2023-04-21T15:03:16.096Z,18.00
2023-04-21T15:05:43.106Z,18.10
2023-04-21T15:08:11.772Z,17.90
2023-04-21T15:10:38.761Z,17.70
2023-04-21T15:13:05.698Z,17.60
2023-04-21T15:15:32.647Z,17.60
2023-04-21T15:17:59.617Z,17.40
2023-04-21T15:20:40.653Z,17.30
2023-04-21T15:23:11.901Z,17.20
2023-04-21T15:25:39.968Z,17.10
2023-04-21T15:28:09.882Z,17.00
2023-04-21T15:30:36.800Z,16.90
2023-04-21T15:33:03.949Z,16.80
2023-04-21T15:35:31.088Z,16.70
2023-04-21T15:37:58.014Z,16.70
2023-04-21T15:40:24.989Z,16.60
2023-04-21T15:42:52.021Z,16.60
2023-04-21T15:45:18.904Z,16.50
2023-04-21T15:47:45.883Z,16.50
2023-04-21T15:50:12.776Z,16.40
2023-04-21T15:52:43.206Z,16.30
2023-04-21T15:55:13.258Z,16.10
2023-04-21T15:57:40.195Z,16.00
2023-04-21T16:00:10.087Z,15.90
2023-04-21T16:02:37.504Z,15.80
2023-04-21T16:05:05.100Z,15.80
2023-04-21T16:07:32.214Z,15.70
2023-04-21T16:09:59.094Z,15.60
2023-04-21T16:12:29.259Z,15.60
2023-04-21T16:15:04.061Z,15.50
2023-04-21T16:17:40.505Z,15.40
2023-04-21T16:20:08.106Z,15.30
2023-04-21T16:22:35.404Z,15.20
2023-04-21T16:25:02.424Z,15.10
2023-04-21T16:27:29.300Z,15.10
2023-04-21T16:29:56.109Z,15.00
2023-04-21T16:32:23.104Z,15.00
2023-04-21T16:34:50.070Z,14.90
2023-04-21T16:37:19.989Z,14.80
2023-04-21T16:39:46.998Z,14.80
2023-04-21T16:42:14.117Z,14.70
2023-04-21T16:44:41.288Z,14.60
2023-04-21T16:47:08.657Z,14.50
2023-04-21T16:49:35.730Z,14.40
2023-04-21T16:52:04.232Z,14.40
2023-04-21T16:54:34.223Z,14.30
2023-04-21T16:57:04.171Z,14.10
2023-04-21T18:51:33.482Z,10.40
2023-04-21T18:54:00.577Z,10.30
2023-04-21T18:56:31.300Z,10.20
2023-04-21T18:58:58.771Z,10.20
2023-04-21T19:01:26.175Z,10.10
2023-04-21T19:03:53.566Z,10.10
2023-04-21T19:06:20.848Z,10.00
2023-04-21T19:08:51.053Z,10.00
2023-04-21T19:11:17.978Z,9.90
2023-04-21T19:13:44.901Z,9.90
2023-04-21T19:16:11.859Z,9.80
2023-04-21T19:18:38.711Z,9.70
2023-04-21T19:21:06.650Z,9.60
2023-04-21T19:23:33.797Z,9.60
2023-04-21T19:26:04.628Z,9.60
2023-04-21T19:28:37.134Z,9.50
2023-04-21T19:31:04.268Z,9.50
2023-04-21T19:33:31.691Z,9.50
2023-04-21T19:35:58.869Z,9.50
2023-04-21T19:38:29.226Z,9.40
2023-04-21T19:41:02.027Z,9.40
2023-04-21T19:43:29.154Z,9.40
2023-04-21T19:45:56.867Z,9.30
2023-04-21T19:48:23.923Z,9.30
2023-04-21T19:50:53.927Z,9.30
2023-04-21T19:53:21.164Z,9.20
2023-04-21T19:55:52.980Z,9.20
2023-04-21T19:58:32.596Z,9.10
2023-04-21T20:01:07.299Z,9.10
2023-04-21T20:03:34.441Z,9.00
2023-04-21T20:06:02.277Z,9.00
2023-04-21T20:08:29.476Z,9.00
2023-04-21T20:10:56.300Z,8.90
2023-04-21T20:13:23.789Z,8.90
2023-04-21T20:15:50.665Z,8.80
2023-04-21T20:18:17.585Z,8.80
2023-04-21T20:20:44.464Z,8.80
2023-04-21T20:23:14.524Z,8.70
2023-04-21T20:25:41.964Z,8.70
2023-04-21T20:28:09.615Z,8.60
2023-04-21T20:30:36.521Z,8.60
2023-04-21T20:33:03.401Z,8.60
2023-04-21T20:35:30.594Z,8.50
2023-04-21T20:37:58.538Z,8.50
2023-04-21T20:40:25.402Z,8.40
2023-04-21T20:42:52.216Z,8.40
2023-04-21T20:45:19.746Z,8.40
2023-04-21T20:47:46.620Z,8.30
2023-04-21T20:50:15.465Z,8.30
2023-04-21T20:52:42.549Z,8.20
2023-04-21T20:55:19.163Z,8.10
2023-04-21T20:57:46.226Z,8.10
2023-04-21T21:00:13.672Z,8.10
2023-04-21T21:02:41.246Z,8.00
2023-04-21T21:05:08.493Z,7.90
2023-04-21T21:07:39.837Z,7.90
2023-04-21T21:10:08.115Z,7.90
2023-04-21T21:12:34.939Z,7.80
2023-04-21T21:15:01.811Z,7.70
2023-04-21T21:17:28.696Z,7.70
2023-04-21T21:19:56.004Z,7.70
2023-04-21T21:22:22.795Z,7.60
2023-04-21T21:24:50.463Z,7.60
2023-04-21T21:27:17.280Z,7.60
2023-04-21T21:29:44.342Z,7.50
2023-04-21T21:32:11.690Z,7.50
2023-04-21T21:34:38.576Z,7.50
2023-04-21T21:37:05.363Z,7.40
2023-04-21T21:39:32.182Z,7.30
2023-04-21T21:41:58.920Z,7.20
2023-04-21T21:44:25.753Z,7.10
2023-04-21T21:46:52.572Z,7.00
2023-04-21T21:49:19.316Z,7.00
2023-04-21T21:51:46.322Z,7.00
2023-04-21T21:54:13.033Z,7.10
2023-04-21T21:56:39.840Z,7.00
2023-04-21T21:59:07.003Z,7.00
2023-04-21T22:01:33.867Z,7.00
2023-04-21T22:04:00.777Z,7.00
2023-04-21T22:06:28.973Z,6.90
2023-04-21T22:08:55.899Z,6.90
2023-04-21T22:11:22.847Z,6.90
2023-04-21T22:13:49.664Z,7.00
2023-04-21T22:16:16.866Z,7.00
2023-04-21T22:18:44.913Z,7.00
2023-04-21T22:21:11.895Z,6.90
2023-04-21T22:23:38.694Z,6.80
2023-04-21T22:26:05.643Z,6.70
2023-04-21T22:28:32.418Z,6.70
2023-04-21T22:30:59.252Z,6.60
2023-04-21T22:33:26.017Z,6.50
2023-04-21T22:35:52.859Z,6.50
2023-04-21T22:38:19.585Z,6.40
2023-04-21T22:40:46.774Z,6.40
2023-04-21T22:43:13.622Z,6.30
2023-04-21T22:45:41.247Z,6.30
2023-04-21T22:48:09.458Z,6.20
2023-04-21T22:50:36.320Z,6.20
2023-04-21T22:53:03.084Z,6.10
2023-04-21T22:55:29.872Z,6.10
2023-04-21T22:57:56.644Z,6.10
2023-04-21T23:00:23.499Z,6.10
2023-04-21T23:02:50.403Z,6.00
2023-04-21T23:05:17.354Z,6.00
2023-04-21T23:07:44.142Z,6.00
2023-04-21T23:10:11.391Z,6.00
2023-04-21T23:12:38.170Z,6.00
2023-04-21T23:15:05.551Z,6.00
2023-04-21T23:17:32.336Z,6.00
2023-04-21T23:19:59.332Z,6.00
2023-04-21T23:22:26.374Z,6.00
2023-04-21T23:24:53.264Z,6.00
2023-04-21T23:27:20.005Z,6.00
2023-04-21T23:29:46.907Z,5.90
2023-04-21T23:32:13.702Z,5.90
2023-04-21T23:34:40.625Z,5.80
2023-04-21T23:37:07.434Z,5.80
2023-04-21T23:39:34.184Z,5.70
2023-04-21T23:42:02.523Z,5.70
2023-04-21T23:44:29.328Z,5.60
2023-04-21T23:46:56.101Z,5.60
2023-04-21T23:49:22.830Z,5.50
2023-04-21T23:51:49.558Z,5.50
2023-04-21T23:54:16.412Z,5.40
2023-04-21T23:56:43.174Z,5.40
2023-04-21T23:59:09.901Z,5.40
